Friday, January 18, 2019, 11:16 PM EST
Back to Local

KACK, Nantucket Memorial Airport

Location: Nantucket, MA, United States Lat: 41.25
Local Time: 11:16 PM EST ( 4:16 GMT) Lon: -70.067
Time Zone: US/Eastern Elev: 49 ft

Show me the last for .
Show Decoded

2019-01-18 23:01 METAR KACK 190401Z AUTO 30004KT 10SM FEW017 01/00 A3010 RMK AO2 T00110000 =
2019-01-18 22:53 METAR KACK 190353Z AUTO 30004KT 10SM SCT017 BKN027 01/00 A3010 RMK AO2 SLP192
                 T00110000 =
2019-01-18 21:53 METAR KACK 190253Z AUTO 30004KT 10SM OVC025 01/00 A3008 RMK AO2 SLP187 T00110000
                 53009 =
2019-01-18 20:53 METAR KACK 190153Z AUTO 28003KT 10SM OVC023 01/01 A3007 RMK AO2 SLP182 T00110006
                 =
2019-01-18 19:53 METAR KACK 190053Z 30004KT 10SM OVC025 01/00 A3006 RMK AO2 SLP179 T00060000 =
2019-01-18 19:35 METAR KACK 190035Z 30003KT 10SM BKN027 01/00 A3005 RMK AO2 T00060000 =
2019-01-18 19:28 METAR KACK 190028Z 31003KT 10SM SCT027 01/00 A3004 RMK AO2 T00060000 =
2019-01-18 18:53 METAR KACK 182353Z 30006KT 10SM BKN008 01/01 A3006 RMK AO2 SLP177 T00110006
                 10044 20000 51014 =
2019-01-18 18:48 METAR KACK 182348Z 30006KT 10SM SCT008 01/00 A3005 RMK AO2 =
2019-01-18 17:53 METAR KACK 182253Z 30004KT 10SM CLR 01/00 A3005 RMK AO2 SLP175 T00060000 =
2019-01-18 17:22 METAR KACK 182222Z 32005KT 8SM SCT038 02/01 A3003 RMK AO2 T00170011 =
2019-01-18 17:10 METAR KACK 182210Z 34004KT 10SM BKN013 02/01 A3002 RMK AO2 T00170011 =
2019-01-18 16:53 METAR KACK 182153Z 01003KT 10SM SCT038 03/02 A3001 RMK AO2 SLP163 T00280017 =
2019-01-18 15:53 METAR KACK 182053Z 05004KT 10SM OVC011 03/02 A3002 RMK AO2 SLP164 T00330017
                 56006 =
2019-01-18 14:53 METAR KACK 181953Z 06006KT 10SM OVC011 03/02 A3002 RMK AO2 SLP164 T00330022 =
2019-01-18 13:53 METAR KACK 181853Z 05009KT 10SM OVC008 04/03 A3002 RMK AO2 SLP164 T00440028 =
2019-01-18 12:53 METAR KACK 181753Z 07009KT 10SM SCT005 OVC050 03/03 A3003 RMK AO2 RAE50 SLP170
                 P0000 60007 T00330028 10033 20006 58030 =
2019-01-18 11:53 METAR KACK 181653Z 06010KT 10SM -RA SCT005 OVC031 02/02 A3007 RMK AO2
                 RAE19B35UPB1556E1559B19E48 SLP183 P0000 T00220017 =
2019-01-18 10:53 METAR KACK 181553Z 07009KT 7SM -RA BKN005 OVC025 01/01 A3010 RMK AO2
                 RAB46UPB52E53SNE46 SLP194 P0003 T00110011 =
2019-01-18 10:16 METAR KACK 181516Z 08008KT 1 1/4SM -SN BR BKN005 BKN023 OVC031 01/00 A3011 RMK
                 AO2 P0001 T00060000 =
2019-01-18 09:53 METAR KACK 181453Z 07007KT 1 1/2SM -SN BR BKN004 OVC019 01/00 A3012 RMK AO2
                 SLP200 P0003 60004 T00060000 55006 =
2019-01-18 08:53 METAR KACK 181353Z 07007KT 1 1/2SM -SN BR BKN005 OVC021 01/00 A3012 RMK AO2
                 SLP200 P0001 T00060000 =
2019-01-18 07:53 METAR KACK 181253Z 08008KT 1 1/4SM -SN BR BKN007 BKN010 OVC026 01/00 A3013 RMK
                 AO2 SNB1156 SLP202 P0000 T00060000 =
2019-01-18 07:41 METAR KACK 181241Z 08007KT 3SM -SN BR FEW006 BKN021 OVC028 01/00 A3013 RMK AO2
                 SNB1156 P0000 T00060000 =
2019-01-18 07:17 METAR KACK 181217Z 09008KT 3SM -SN BR SCT010 SCT016 OVC033 01/00 A3014 RMK AO2
                 SNB1156 P0000 T00060000 =
2019-01-18 06:53 METAR KACK 181153Z 09009KT 9SM BKN010 BKN014 OVC050 01/00 A3014 RMK AO2 SNE38
                 SLP206 P0000 60000 T00060000 10011 20000 56015 =
2019-01-18 06:49 METAR KACK 181149Z 09007KT 10SM BKN008 BKN014 OVC050 01/00 A3015 RMK AO2 SNE38
                 P0000 =
2019-01-18 06:11 METAR KACK 181111Z 10007KT 5SM -SN BR FEW010 BKN026 OVC070 00/M01 A3014 RMK AO2
                 P0000 T00001006 =
2019-01-18 05:53 METAR KACK 181053Z 10009KT 2SM -SN BR FEW012 BKN018 OVC070 00/M01 A3015 RMK AO2
                 SLP211 P0000 T00001006 =
2019-01-18 05:29 METAR KACK 181029Z AUTO 10010KT 1 3/4SM -SN BR FEW014 OVC022 00/M01 A3016 RMK
                 AO2 P0000 T00001011 =
2019-01-18 05:09 METAR KACK 181009Z AUTO 10006KT 6SM -SN BR FEW017 BKN026 OVC040 00/M01 A3017 RMK
                 AO2 P0000 T00001011 =
2019-01-18 04:53 METAR KACK 180953Z AUTO 11009KT 2 1/2SM -SN BR BKN033 OVC042 00/M02 A3017 RMK
                 AO2 SLP216 P0000 T00001017 =
2019-01-18 04:34 METAR KACK 180934Z AUTO 10008KT 6SM -SN SCT028 OVC042 01/M03 A3016 RMK AO2 P0000
                 T00061033 =
2019-01-18 04:18 METAR KACK 180918Z AUTO 10009KT 6SM -SN BKN028 OVC038 01/M03 A3017 RMK AO2 P0000
                 T00061033 =
2019-01-18 04:02 METAR KACK 180902Z AUTO 11008KT 8SM -SN SCT027 BKN035 OVC044 01/M04 A3018 RMK
                 AO2 P0000 T00061039 =
2019-01-18 03:53 METAR KACK 180853Z AUTO 10011KT 9SM -SN BKN027 BKN036 OVC044 01/M04 A3018 RMK
                 AO2 SNB50 SLP221 P0000 60000 T00111044 58027 =
2019-01-18 03:04 METAR KACK 180804Z AUTO 11011KT 10SM BKN028 BKN070 OVC095 01/M05 A3021 RMK AO2
                 T00061050 =
2019-01-18 02:53 METAR KACK 180753Z AUTO 12010KT 10SM SCT028 BKN070 BKN110 01/M05 A3022 RMK AO2
                 SLP232 T00061050 =
2019-01-18 01:53 METAR KACK 180653Z AUTO 12013KT 10SM SCT030 BKN120 01/M06 A3025 RMK AO2 SLP243
                 T00061061 =
2019-01-18 00:53 METAR KACK 180553Z AUTO 13008KT 10SM SCT030 OVC110 00/M06 A3026 RMK AO2 SLP248
                 T00001061 10006 21039 58021 =
2019-01-17 23:53 METAR KACK 180453Z AUTO 12007KT 10SM OVC120 M01/M07 A3029 RMK AO2 SLP258
                 T10061067 400111050 =

Support USWX by starting your Amazon purchase here.